sensor_id;sensor_type;location;lat;lon;timestamp;P1;durP1;ratioP1;P2;durP2;ratioP2
8474;SDS011;4274;52.012;8.448;2023-08-24T00:01:31;50.10;;;4.40;;
8474;SDS011;4274;52.012;8.448;2023-08-24T00:03:57;52.93;;;4.33;;
8474;SDS011;4274;52.012;8.448;2023-08-24T00:06:22;47.03;;;4.17;;
8474;SDS011;4274;52.012;8.448;2023-08-24T00:08:48;48.70;;;4.57;;
8474;SDS011;4274;52.012;8.448;2023-08-24T00:11:13;49.40;;;4.77;;
8474;SDS011;4274;52.012;8.448;2023-08-24T00:13:43;46.83;;;4.33;;
8474;SDS011;4274;52.012;8.448;2023-08-24T00:16:16;49.47;;;4.50;;
8474;SDS011;4274;52.012;8.448;2023-08-24T00:18:42;50.70;;;4.90;;
8474;SDS011;4274;52.012;8.448;2023-08-24T00:21:08;52.67;;;5.67;;
8474;SDS011;4274;52.012;8.448;2023-08-24T00:23:33;47.20;;;4.80;;
8474;SDS011;4274;52.012;8.448;2023-08-24T00:25:59;49.20;;;4.80;;
8474;SDS011;4274;52.012;8.448;2023-08-24T00:28:28;49.07;;;5.30;;
8474;SDS011;4274;52.012;8.448;2023-08-24T00:30:53;51.90;;;5.10;;
8474;SDS011;4274;52.012;8.448;2023-08-24T00:33:19;47.27;;;5.00;;
8474;SDS011;4274;52.012;8.448;2023-08-24T00:35:44;47.10;;;4.83;;
8474;SDS011;4274;52.012;8.448;2023-08-24T00:38:10;53.50;;;5.13;;
8474;SDS011;4274;52.012;8.448;2023-08-24T00:40:36;54.33;;;5.70;;
8474;SDS011;4274;52.012;8.448;2023-08-24T00:43:01;49.40;;;5.20;;
8474;SDS011;4274;52.012;8.448;2023-08-24T00:45:27;48.30;;;5.87;;
8474;SDS011;4274;52.012;8.448;2023-08-24T00:47:54;49.50;;;5.80;;
8474;SDS011;4274;52.012;8.448;2023-08-24T00:50:20;51.30;;;6.37;;
8474;SDS011;4274;52.012;8.448;2023-08-24T00:52:46;51.70;;;6.30;;
8474;SDS011;4274;52.012;8.448;2023-08-24T00:55:12;48.67;;;5.43;;
8474;SDS011;4274;52.012;8.448;2023-08-24T00:57:39;48.47;;;5.50;;
8474;SDS011;4274;52.012;8.448;2023-08-24T01:00:06;47.97;;;5.73;;
8474;SDS011;4274;52.012;8.448;2023-08-24T01:02:36;52.70;;;6.60;;
8474;SDS011;4274;52.012;8.448;2023-08-24T01:05:05;52.20;;;6.70;;
8474;SDS011;4274;52.012;8.448;2023-08-24T01:07:32;56.13;;;6.10;;
8474;SDS011;4274;52.012;8.448;2023-08-24T01:09:59;51.83;;;5.90;;
8474;SDS011;4274;52.012;8.448;2023-08-24T01:12:28;48.20;;;5.43;;
8474;SDS011;4274;52.012;8.448;2023-08-24T01:17:40;51.07;;;6.03;;
8474;SDS011;4274;52.012;8.448;2023-08-24T01:20:09;49.77;;;5.93;;
8474;SDS011;4274;52.012;8.448;2023-08-24T01:25:32;50.20;;;6.10;;
8474;SDS011;4274;52.012;8.448;2023-08-24T01:28:07;53.90;;;6.80;;
8474;SDS011;4274;52.012;8.448;2023-08-24T01:30:36;56.40;;;6.30;;
8474;SDS011;4274;52.012;8.448;2023-08-24T01:33:02;49.90;;;6.03;;
8474;SDS011;4274;52.012;8.448;2023-08-24T01:35:29;50.50;;;6.30;;
8474;SDS011;4274;52.012;8.448;2023-08-24T01:37:55;48.20;;;5.77;;
8474;SDS011;4274;52.012;8.448;2023-08-24T01:40:26;50.57;;;6.27;;
8474;SDS011;4274;52.012;8.448;2023-08-24T01:42:59;53.50;;;6.50;;
8474;SDS011;4274;52.012;8.448;2023-08-24T01:45:31;49.70;;;6.50;;
8474;SDS011;4274;52.012;8.448;2023-08-24T01:47:57;54.90;;;7.00;;
8474;SDS011;4274;52.012;8.448;2023-08-24T01:50:25;53.57;;;7.40;;
8474;SDS011;4274;52.012;8.448;2023-08-24T01:52:51;52.47;;;7.57;;
8474;SDS011;4274;52.012;8.448;2023-08-24T01:55:18;52.20;;;6.50;;
8474;SDS011;4274;52.012;8.448;2023-08-24T01:57:44;58.83;;;6.20;;
8474;SDS011;4274;52.012;8.448;2023-08-24T02:00:09;53.67;;;6.80;;
8474;SDS011;4274;52.012;8.448;2023-08-24T02:02:36;49.63;;;6.60;;
8474;SDS011;4274;52.012;8.448;2023-08-24T02:05:04;51.63;;;7.47;;
8474;SDS011;4274;52.012;8.448;2023-08-24T02:07:30;56.83;;;7.47;;
8474;SDS011;4274;52.012;8.448;2023-08-24T02:09:55;54.37;;;7.33;;
8474;SDS011;4274;52.012;8.448;2023-08-24T02:12:21;52.53;;;7.03;;
8474;SDS011;4274;52.012;8.448;2023-08-24T02:14:47;52.57;;;7.30;;
8474;SDS011;4274;52.012;8.448;2023-08-24T02:17:12;50.80;;;7.23;;
8474;SDS011;4274;52.012;8.448;2023-08-24T02:19:39;49.63;;;6.90;;
8474;SDS011;4274;52.012;8.448;2023-08-24T02:22:06;50.67;;;7.30;;
8474;SDS011;4274;52.012;8.448;2023-08-24T02:24:32;53.63;;;8.00;;
8474;SDS011;4274;52.012;8.448;2023-08-24T02:26:57;50.97;;;6.70;;
8474;SDS011;4274;52.012;8.448;2023-08-24T02:29:23;54.17;;;8.10;;
8474;SDS011;4274;52.012;8.448;2023-08-24T02:31:51;52.07;;;8.30;;
8474;SDS011;4274;52.012;8.448;2023-08-24T02:34:17;51.20;;;7.10;;
8474;SDS011;4274;52.012;8.448;2023-08-24T02:36:43;54.00;;;7.90;;
8474;SDS011;4274;52.012;8.448;2023-08-24T02:39:09;57.73;;;8.60;;
8474;SDS011;4274;52.012;8.448;2023-08-24T02:41:35;49.70;;;7.80;;
8474;SDS011;4274;52.012;8.448;2023-08-24T02:44:01;53.27;;;7.70;;
8474;SDS011;4274;52.012;8.448;2023-08-24T02:46:27;53.53;;;8.17;;
8474;SDS011;4274;52.012;8.448;2023-08-24T02:48:53;53.40;;;7.10;;
8474;SDS011;4274;52.012;8.448;2023-08-24T02:51:20;63.73;;;8.57;;
8474;SDS011;4274;52.012;8.448;2023-08-24T02:53:47;50.60;;;8.00;;
8474;SDS011;4274;52.012;8.448;2023-08-24T02:56:12;51.40;;;7.83;;
8474;SDS011;4274;52.012;8.448;2023-08-24T02:58:38;49.93;;;6.63;;
8474;SDS011;4274;52.012;8.448;2023-08-24T03:01:04;53.07;;;7.07;;
8474;SDS011;4274;52.012;8.448;2023-08-24T03:03:36;54.27;;;6.27;;
8474;SDS011;4274;52.012;8.448;2023-08-24T03:06:03;49.03;;;5.97;;
8474;SDS011;4274;52.012;8.448;2023-08-24T03:08:30;51.53;;;7.07;;
8474;SDS011;4274;52.012;8.448;2023-08-24T03:10:57;50.53;;;7.00;;
8474;SDS011;4274;52.012;8.448;2023-08-24T03:13:24;53.80;;;6.27;;
8474;SDS011;4274;52.012;8.448;2023-08-24T03:15:50;49.43;;;5.90;;
8474;SDS011;4274;52.012;8.448;2023-08-24T03:18:16;49.80;;;6.43;;
8474;SDS011;4274;52.012;8.448;2023-08-24T03:20:42;49.50;;;6.10;;
8474;SDS011;4274;52.012;8.448;2023-08-24T03:23:08;52.73;;;6.37;;
8474;SDS011;4274;52.012;8.448;2023-08-24T03:25:37;50.93;;;5.53;;
8474;SDS011;4274;52.012;8.448;2023-08-24T03:28:05;50.17;;;5.97;;
8474;SDS011;4274;52.012;8.448;2023-08-24T03:30:32;48.50;;;5.77;;
8474;SDS011;4274;52.012;8.448;2023-08-24T03:32:59;50.83;;;5.93;;
8474;SDS011;4274;52.012;8.448;2023-08-24T03:35:24;48.80;;;6.10;;
8474;SDS011;4274;52.012;8.448;2023-08-24T03:37:50;51.37;;;6.20;;
8474;SDS011;4274;52.012;8.448;2023-08-24T03:40:16;56.58;;;5.90;;
8474;SDS011;4274;52.012;8.448;2023-08-24T03:42:42;48.20;;;5.87;;
8474;SDS011;4274;52.012;8.448;2023-08-24T03:45:07;49.93;;;5.70;;
8474;SDS011;4274;52.012;8.448;2023-08-24T03:47:33;54.13;;;6.73;;
8474;SDS011;4274;52.012;8.448;2023-08-24T03:49:59;51.03;;;6.33;;
8474;SDS011;4274;52.012;8.448;2023-08-24T03:52:25;55.07;;;6.40;;
8474;SDS011;4274;52.012;8.448;2023-08-24T03:54:50;53.87;;;6.57;;
8474;SDS011;4274;52.012;8.448;2023-08-24T03:57:16;53.20;;;7.43;;
8474;SDS011;4274;52.012;8.448;2023-08-24T03:59:41;52.27;;;7.27;;
8474;SDS011;4274;52.012;8.448;2023-08-24T04:02:07;56.03;;;8.20;;
8474;SDS011;4274;52.012;8.448;2023-08-24T04:04:32;57.10;;;7.50;;
8474;SDS011;4274;52.012;8.448;2023-08-24T04:06:58;50.70;;;7.23;;
8474;SDS011;4274;52.012;8.448;2023-08-24T04:09:24;51.30;;;8.30;;
8474;SDS011;4274;52.012;8.448;2023-08-24T04:11:49;51.53;;;7.47;;
8474;SDS011;4274;52.012;8.448;2023-08-24T04:14:15;58.13;;;8.50;;
8474;SDS011;4274;52.012;8.448;2023-08-24T04:16:40;52.90;;;8.13;;
8474;SDS011;4274;52.012;8.448;2023-08-24T04:19:07;49.90;;;7.67;;
8474;SDS011;4274;52.012;8.448;2023-08-24T04:21:33;67.60;;;8.40;;
8474;SDS011;4274;52.012;8.448;2023-08-24T04:23:59;50.90;;;7.20;;
8474;SDS011;4274;52.012;8.448;2023-08-24T04:26:24;55.43;;;7.37;;
8474;SDS011;4274;52.012;8.448;2023-08-24T04:28:50;49.50;;;6.87;;
8474;SDS011;4274;52.012;8.448;2023-08-24T04:31:16;50.50;;;6.40;;
8474;SDS011;4274;52.012;8.448;2023-08-24T04:33:41;51.97;;;6.23;;
8474;SDS011;4274;52.012;8.448;2023-08-24T04:36:07;49.70;;;6.63;;
8474;SDS011;4274;52.012;8.448;2023-08-24T04:38:33;50.07;;;6.67;;
8474;SDS011;4274;52.012;8.448;2023-08-24T04:40:59;50.80;;;6.67;;
8474;SDS011;4274;52.012;8.448;2023-08-24T04:43:25;52.53;;;7.07;;
8474;SDS011;4274;52.012;8.448;2023-08-24T04:45:51;52.47;;;8.30;;
8474;SDS011;4274;52.012;8.448;2023-08-24T04:48:18;54.73;;;7.20;;
8474;SDS011;4274;52.012;8.448;2023-08-24T04:50:48;51.03;;;7.50;;
8474;SDS011;4274;52.012;8.448;2023-08-24T04:53:15;58.87;;;8.17;;
8474;SDS011;4274;52.012;8.448;2023-08-24T04:55:44;53.67;;;9.20;;
8474;SDS011;4274;52.012;8.448;2023-08-24T04:58:11;51.10;;;7.40;;
8474;SDS011;4274;52.012;8.448;2023-08-24T05:00:38;49.30;;;6.80;;
8474;SDS011;4274;52.012;8.448;2023-08-24T05:03:03;63.50;;;7.57;;
8474;SDS011;4274;52.012;8.448;2023-08-24T05:05:30;48.50;;;6.50;;
8474;SDS011;4274;52.012;8.448;2023-08-24T05:07:57;49.57;;;7.30;;
8474;SDS011;4274;52.012;8.448;2023-08-24T05:10:24;50.53;;;7.33;;
8474;SDS011;4274;52.012;8.448;2023-08-24T05:12:50;56.72;;;7.70;;
8474;SDS011;4274;52.012;8.448;2023-08-24T05:15:16;53.20;;;8.40;;
8474;SDS011;4274;52.012;8.448;2023-08-24T05:17:42;53.07;;;8.23;;
8474;SDS011;4274;52.012;8.448;2023-08-24T05:20:08;50.47;;;6.70;;
8474;SDS011;4274;52.012;8.448;2023-08-24T05:22:37;59.80;;;9.00;;
8474;SDS011;4274;52.012;8.448;2023-08-24T05:25:03;51.80;;;8.37;;
8474;SDS011;4274;52.012;8.448;2023-08-24T05:27:29;51.97;;;8.90;;
8474;SDS011;4274;52.012;8.448;2023-08-24T05:29:55;56.20;;;10.38;;
8474;SDS011;4274;52.012;8.448;2023-08-24T05:32:21;53.10;;;10.67;;
8474;SDS011;4274;52.012;8.448;2023-08-24T05:34:46;57.87;;;12.63;;
8474;SDS011;4274;52.012;8.448;2023-08-24T05:37:12;56.40;;;12.30;;
8474;SDS011;4274;52.012;8.448;2023-08-24T05:39:37;56.60;;;12.30;;
8474;SDS011;4274;52.012;8.448;2023-08-24T05:42:03;58.97;;;13.40;;
8474;SDS011;4274;52.012;8.448;2023-08-24T05:44:29;71.50;;;15.30;;
8474;SDS011;4274;52.012;8.448;2023-08-24T05:46:55;66.30;;;14.43;;
8474;SDS011;4274;52.012;8.448;2023-08-24T05:49:20;59.90;;;15.80;;
8474;SDS011;4274;52.012;8.448;2023-08-24T05:51:46;59.57;;;13.40;;
8474;SDS011;4274;52.012;8.448;2023-08-24T05:54:12;61.45;;;15.30;;
8474;SDS011;4274;52.012;8.448;2023-08-24T05:56:38;63.63;;;16.83;;
8474;SDS011;4274;52.012;8.448;2023-08-24T05:59:04;62.17;;;16.43;;
8474;SDS011;4274;52.012;8.448;2023-08-24T06:01:29;66.50;;;14.70;;
8474;SDS011;4274;52.012;8.448;2023-08-24T06:03:55;61.60;;;13.80;;
8474;SDS011;4274;52.012;8.448;2023-08-24T06:06:20;58.33;;;14.50;;
8474;SDS011;4274;52.012;8.448;2023-08-24T06:08:46;58.60;;;13.63;;
8474;SDS011;4274;52.012;8.448;2023-08-24T06:11:11;67.83;;;14.97;;
8474;SDS011;4274;52.012;8.448;2023-08-24T06:13:37;65.37;;;15.87;;
8474;SDS011;4274;52.012;8.448;2023-08-24T06:16:03;64.40;;;16.20;;
8474;SDS011;4274;52.012;8.448;2023-08-24T06:18:28;61.47;;;15.90;;
8474;SDS011;4274;52.012;8.448;2023-08-24T06:20:54;63.20;;;13.77;;
8474;SDS011;4274;52.012;8.448;2023-08-24T06:23:19;62.80;;;14.57;;
8474;SDS011;4274;52.012;8.448;2023-08-24T06:25:46;63.30;;;15.97;;
8474;SDS011;4274;52.012;8.448;2023-08-24T06:28:12;60.73;;;16.03;;
8474;SDS011;4274;52.012;8.448;2023-08-24T06:30:38;66.47;;;15.90;;
8474;SDS011;4274;52.012;8.448;2023-08-24T06:33:05;62.67;;;15.23;;
8474;SDS011;4274;52.012;8.448;2023-08-24T06:35:31;61.70;;;14.63;;
8474;SDS011;4274;52.012;8.448;2023-08-24T06:38:01;63.37;;;15.07;;
8474;SDS011;4274;52.012;8.448;2023-08-24T06:40:27;66.10;;;14.67;;
8474;SDS011;4274;52.012;8.448;2023-08-24T06:42:53;65.83;;;16.37;;
8474;SDS011;4274;52.012;8.448;2023-08-24T06:45:19;61.97;;;15.32;;
8474;SDS011;4274;52.012;8.448;2023-08-24T06:47:44;60.30;;;15.83;;
8474;SDS011;4274;52.012;8.448;2023-08-24T06:50:10;61.03;;;13.53;;
8474;SDS011;4274;52.012;8.448;2023-08-24T06:52:36;58.47;;;14.63;;
8474;SDS011;4274;52.012;8.448;2023-08-24T06:55:02;57.90;;;14.13;;
8474;SDS011;4274;52.012;8.448;2023-08-24T06:57:28;59.40;;;13.80;;
8474;SDS011;4274;52.012;8.448;2023-08-24T06:59:54;59.17;;;13.60;;
8474;SDS011;4274;52.012;8.448;2023-08-24T07:02:19;69.47;;;14.50;;
8474;SDS011;4274;52.012;8.448;2023-08-24T07:04:45;57.80;;;14.70;;
8474;SDS011;4274;52.012;8.448;2023-08-24T07:07:11;57.20;;;13.83;;
8474;SDS011;4274;52.012;8.448;2023-08-24T07:09:36;56.47;;;13.63;;
8474;SDS011;4274;52.012;8.448;2023-08-24T07:12:05;60.13;;;11.60;;
8474;SDS011;4274;52.012;8.448;2023-08-24T07:14:35;53.40;;;9.20;;
8474;SDS011;4274;52.012;8.448;2023-08-24T07:17:01;54.40;;;10.27;;
8474;SDS011;4274;52.012;8.448;2023-08-24T07:19:27;51.20;;;9.23;;
8474;SDS011;4274;52.012;8.448;2023-08-24T07:21:53;54.43;;;8.90;;
8474;SDS011;4274;52.012;8.448;2023-08-24T07:24:18;52.43;;;8.27;;
8474;SDS011;4274;52.012;8.448;2023-08-24T07:26:45;53.17;;;7.20;;
8474;SDS011;4274;52.012;8.448;2023-08-24T07:29:11;57.60;;;9.30;;
8474;SDS011;4274;52.012;8.448;2023-08-24T07:31:37;51.40;;;9.00;;
8474;SDS011;4274;52.012;8.448;2023-08-24T07:34:04;53.03;;;9.73;;
8474;SDS011;4274;52.012;8.448;2023-08-24T07:36:29;54.43;;;9.07;;
8474;SDS011;4274;52.012;8.448;2023-08-24T07:38:55;53.03;;;8.67;;
8474;SDS011;4274;52.012;8.448;2023-08-24T07:41:21;55.63;;;9.00;;
8474;SDS011;4274;52.012;8.448;2023-08-24T07:43:47;55.10;;;9.13;;
8474;SDS011;4274;52.012;8.448;2023-08-24T07:46:13;61.60;;;9.07;;
8474;SDS011;4274;52.012;8.448;2023-08-24T07:48:38;50.63;;;7.00;;
8474;SDS011;4274;52.012;8.448;2023-08-24T07:51:04;54.43;;;6.30;;
8474;SDS011;4274;52.012;8.448;2023-08-24T07:53:29;52.80;;;5.90;;
8474;SDS011;4274;52.012;8.448;2023-08-24T07:55:57;51.00;;;5.80;;
8474;SDS011;4274;52.012;8.448;2023-08-24T07:58:23;49.90;;;6.33;;
8474;SDS011;4274;52.012;8.448;2023-08-24T08:00:50;64.03;;;6.63;;
8474;SDS011;4274;52.012;8.448;2023-08-24T08:03:17;50.30;;;5.40;;
8474;SDS011;4274;52.012;8.448;2023-08-24T08:05:44;49.80;;;5.90;;
8474;SDS011;4274;52.012;8.448;2023-08-24T08:08:10;52.03;;;5.97;;
8474;SDS011;4274;52.012;8.448;2023-08-24T08:10:36;49.07;;;5.47;;
8474;SDS011;4274;52.012;8.448;2023-08-24T08:13:01;48.53;;;5.47;;
8474;SDS011;4274;52.012;8.448;2023-08-24T08:15:27;51.27;;;5.80;;
8474;SDS011;4274;52.012;8.448;2023-08-24T08:17:53;53.07;;;6.37;;
8474;SDS011;4274;52.012;8.448;2023-08-24T08:20:18;53.27;;;6.37;;
8474;SDS011;4274;52.012;8.448;2023-08-24T08:22:44;48.47;;;6.20;;
8474;SDS011;4274;52.012;8.448;2023-08-24T08:25:09;53.13;;;5.97;;
8474;SDS011;4274;52.012;8.448;2023-08-24T08:27:37;60.80;;;5.80;;
8474;SDS011;4274;52.012;8.448;2023-08-24T08:30:03;50.23;;;5.60;;
8474;SDS011;4274;52.012;8.448;2023-08-24T08:32:31;51.47;;;5.33;;
8474;SDS011;4274;52.012;8.448;2023-08-24T08:34:57;51.30;;;5.20;;
8474;SDS011;4274;52.012;8.448;2023-08-24T08:37:25;54.13;;;5.67;;
8474;SDS011;4274;52.012;8.448;2023-08-24T08:39:50;50.97;;;5.00;;
8474;SDS011;4274;52.012;8.448;2023-08-24T08:42:16;56.40;;;5.37;;
8474;SDS011;4274;52.012;8.448;2023-08-24T08:44:43;53.23;;;5.40;;
8474;SDS011;4274;52.012;8.448;2023-08-24T08:47:10;65.20;;;5.37;;
8474;SDS011;4274;52.012;8.448;2023-08-24T08:49:37;50.60;;;4.80;;
8474;SDS011;4274;52.012;8.448;2023-08-24T08:52:04;55.38;;;5.93;;
8474;SDS011;4274;52.012;8.448;2023-08-24T08:54:30;53.53;;;5.70;;
8474;SDS011;4274;52.012;8.448;2023-08-24T08:56:57;55.10;;;5.30;;
8474;SDS011;4274;52.012;8.448;2023-08-24T08:59:24;55.50;;;5.37;;
8474;SDS011;4274;52.012;8.448;2023-08-24T09:02:00;54.93;;;4.80;;
8474;SDS011;4274;52.012;8.448;2023-08-24T09:04:27;58.43;;;5.07;;
8474;SDS011;4274;52.012;8.448;2023-08-24T09:06:54;48.60;;;4.60;;
8474;SDS011;4274;52.012;8.448;2023-08-24T09:09:21;48.90;;;4.07;;
8474;SDS011;4274;52.012;8.448;2023-08-24T09:11:49;49.57;;;4.27;;
8474;SDS011;4274;52.012;8.448;2023-08-24T09:14:15;51.53;;;4.00;;
8474;SDS011;4274;52.012;8.448;2023-08-24T09:16:41;50.23;;;3.93;;
8474;SDS011;4274;52.012;8.448;2023-08-24T09:19:10;48.70;;;4.47;;
8474;SDS011;4274;52.012;8.448;2023-08-24T09:21:39;50.90;;;4.60;;
8474;SDS011;4274;52.012;8.448;2023-08-24T09:24:07;52.97;;;4.67;;
8474;SDS011;4274;52.012;8.448;2023-08-24T09:26:34;51.20;;;5.13;;
8474;SDS011;4274;52.012;8.448;2023-08-24T09:29:10;55.60;;;5.50;;
8474;SDS011;4274;52.012;8.448;2023-08-24T09:31:38;49.07;;;4.43;;
8474;SDS011;4274;52.012;8.448;2023-08-24T09:34:04;49.50;;;4.70;;
8474;SDS011;4274;52.012;8.448;2023-08-24T09:36:34;57.97;;;5.77;;
8474;SDS011;4274;52.012;8.448;2023-08-24T09:39:00;59.23;;;6.07;;
8474;SDS011;4274;52.012;8.448;2023-08-24T09:41:40;52.10;;;5.20;;
8474;SDS011;4274;52.012;8.448;2023-08-24T09:44:07;53.43;;;4.90;;
8474;SDS011;4274;52.012;8.448;2023-08-24T09:46:34;51.60;;;5.07;;
8474;SDS011;4274;52.012;8.448;2023-08-24T09:49:03;53.63;;;4.63;;
8474;SDS011;4274;52.012;8.448;2023-08-24T09:51:34;50.10;;;4.93;;
8474;SDS011;4274;52.012;8.448;2023-08-24T09:54:02;49.40;;;4.57;;
8474;SDS011;4274;52.012;8.448;2023-08-24T09:56:31;49.40;;;4.17;;
8474;SDS011;4274;52.012;8.448;2023-08-24T09:59:00;49.40;;;4.53;;
8474;SDS011;4274;52.012;8.448;2023-08-24T10:01:32;50.70;;;5.03;;
8474;SDS011;4274;52.012;8.448;2023-08-24T10:03:58;51.50;;;4.90;;
8474;SDS011;4274;52.012;8.448;2023-08-24T10:06:25;52.03;;;4.93;;
8474;SDS011;4274;52.012;8.448;2023-08-24T10:08:54;51.00;;;3.90;;
8474;SDS011;4274;52.012;8.448;2023-08-24T10:11:26;51.53;;;4.33;;
8474;SDS011;4274;52.012;8.448;2023-08-24T10:14:04;49.20;;;4.07;;
8474;SDS011;4274;52.012;8.448;2023-08-24T10:16:36;62.73;;;4.97;;
8474;SDS011;4274;52.012;8.448;2023-08-24T10:19:02;52.43;;;4.37;;
8474;SDS011;4274;52.012;8.448;2023-08-24T10:21:29;51.63;;;4.10;;
8474;SDS011;4274;52.012;8.448;2023-08-24T10:23:56;58.43;;;4.67;;
8474;SDS011;4274;52.012;8.448;2023-08-24T10:26:22;50.17;;;4.27;;
8474;SDS011;4274;52.012;8.448;2023-08-24T10:28:49;53.60;;;4.60;;
8474;SDS011;4274;52.012;8.448;2023-08-24T10:31:16;54.33;;;4.67;;
8474;SDS011;4274;52.012;8.448;2023-08-24T10:33:42;51.93;;;4.17;;
8474;SDS011;4274;52.012;8.448;2023-08-24T10:36:10;56.20;;;4.30;;
8474;SDS011;4274;52.012;8.448;2023-08-24T10:38:42;62.80;;;5.23;;
8474;SDS011;4274;52.012;8.448;2023-08-24T10:41:07;52.40;;;4.57;;
8474;SDS011;4274;52.012;8.448;2023-08-24T10:43:36;55.47;;;4.80;;
8474;SDS011;4274;52.012;8.448;2023-08-24T10:46:03;49.20;;;3.40;;
8474;SDS011;4274;52.012;8.448;2023-08-24T10:48:30;56.60;;;3.63;;
8474;SDS011;4274;52.012;8.448;2023-08-24T10:53:55;56.30;;;4.50;;
8474;SDS011;4274;52.012;8.448;2023-08-24T10:56:29;51.00;;;5.03;;
8474;SDS011;4274;52.012;8.448;2023-08-24T10:59:10;51.67;;;4.65;;
8474;SDS011;4274;52.012;8.448;2023-08-24T11:04:17;47.72;;;3.20;;
8474;SDS011;4274;52.012;8.448;2023-08-24T11:06:58;51.10;;;4.10;;
8474;SDS011;4274;52.012;8.448;2023-08-24T11:09:27;50.05;;;4.40;;
8474;SDS011;4274;52.012;8.448;2023-08-24T11:12:10;50.80;;;4.18;;
8474;SDS011;4274;52.012;8.448;2023-08-24T11:14:48;52.60;;;3.60;;
8474;SDS011;4274;52.012;8.448;2023-08-24T11:17:20;50.63;;;3.72;;
8474;SDS011;4274;52.012;8.448;2023-08-24T11:19:47;51.67;;;4.45;;
8474;SDS011;4274;52.012;8.448;2023-08-24T11:22:14;49.65;;;4.00;;
8474;SDS011;4274;52.012;8.448;2023-08-24T11:24:41;49.20;;;3.90;;
8474;SDS011;4274;52.012;8.448;2023-08-24T11:27:07;53.85;;;3.95;;
8474;SDS011;4274;52.012;8.448;2023-08-24T11:29:34;50.58;;;4.13;;
8474;SDS011;4274;52.012;8.448;2023-08-24T11:32:00;55.38;;;4.20;;
8474;SDS011;4274;52.012;8.448;2023-08-24T11:34:25;49.55;;;3.53;;
8474;SDS011;4274;52.012;8.448;2023-08-24T11:36:51;54.88;;;3.72;;
8474;SDS011;4274;52.012;8.448;2023-08-24T11:39:19;53.30;;;3.95;;
8474;SDS011;4274;52.012;8.448;2023-08-24T11:41:59;49.38;;;3.63;;
8474;SDS011;4274;52.012;8.448;2023-08-24T11:44:25;60.70;;;5.10;;
8474;SDS011;4274;52.012;8.448;2023-08-24T11:46:51;49.67;;;4.03;;
8474;SDS011;4274;52.012;8.448;2023-08-24T11:49:17;51.00;;;3.80;;
8474;SDS011;4274;52.012;8.448;2023-08-24T11:51:42;51.47;;;4.00;;
8474;SDS011;4274;52.012;8.448;2023-08-24T11:54:08;50.00;;;4.00;;
8474;SDS011;4274;52.012;8.448;2023-08-24T11:56:40;85.85;;;6.55;;
8474;SDS011;4274;52.012;8.448;2023-08-24T11:59:15;51.80;;;3.80;;
8474;SDS011;4274;52.012;8.448;2023-08-24T12:01:41;51.57;;;3.60;;
8474;SDS011;4274;52.012;8.448;2023-08-24T12:04:08;51.17;;;3.57;;
8474;SDS011;4274;52.012;8.448;2023-08-24T12:06:34;53.13;;;3.63;;
8474;SDS011;4274;52.012;8.448;2023-08-24T12:08:59;55.07;;;4.50;;
8474;SDS011;4274;52.012;8.448;2023-08-24T12:11:25;52.40;;;3.20;;
8474;SDS011;4274;52.012;8.448;2023-08-24T12:13:52;50.77;;;3.50;;
8474;SDS011;4274;52.012;8.448;2023-08-24T12:16:20;49.30;;;3.03;;
8474;SDS011;4274;52.012;8.448;2023-08-24T12:18:47;56.10;;;2.87;;
8474;SDS011;4274;52.012;8.448;2023-08-24T12:21:17;48.47;;;3.07;;
8474;SDS011;4274;52.012;8.448;2023-08-24T12:23:44;49.07;;;2.80;;
8474;SDS011;4274;52.012;8.448;2023-08-24T12:26:19;48.87;;;3.00;;
8474;SDS011;4274;52.012;8.448;2023-08-24T12:28:48;48.10;;;2.60;;
8474;SDS011;4274;52.012;8.448;2023-08-24T12:31:16;52.97;;;2.90;;
8474;SDS011;4274;52.012;8.448;2023-08-24T12:33:42;55.23;;;2.87;;
8474;SDS011;4274;52.012;8.448;2023-08-24T12:36:09;50.67;;;3.53;;
8474;SDS011;4274;52.012;8.448;2023-08-24T12:38:34;52.20;;;3.50;;
8474;SDS011;4274;52.012;8.448;2023-08-24T12:41:00;51.40;;;2.93;;
8474;SDS011;4274;52.012;8.448;2023-08-24T12:43:26;48.43;;;2.53;;
8474;SDS011;4274;52.012;8.448;2023-08-24T12:45:52;47.37;;;2.27;;
8474;SDS011;4274;52.012;8.448;2023-08-24T12:48:17;49.73;;;2.50;;
8474;SDS011;4274;52.012;8.448;2023-08-24T12:50:43;48.50;;;2.80;;
8474;SDS011;4274;52.012;8.448;2023-08-24T12:53:09;48.43;;;2.73;;
8474;SDS011;4274;52.012;8.448;2023-08-24T12:55:35;48.67;;;2.90;;
8474;SDS011;4274;52.012;8.448;2023-08-24T12:58:03;49.00;;;2.90;;
8474;SDS011;4274;52.012;8.448;2023-08-24T13:00:29;49.17;;;2.90;;
8474;SDS011;4274;52.012;8.448;2023-08-24T13:02:55;50.27;;;2.93;;
8474;SDS011;4274;52.012;8.448;2023-08-24T13:05:20;47.63;;;2.90;;
8474;SDS011;4274;52.012;8.448;2023-08-24T13:07:46;48.50;;;2.63;;
8474;SDS011;4274;52.012;8.448;2023-08-24T13:10:12;51.57;;;3.87;;
8474;SDS011;4274;52.012;8.448;2023-08-24T13:12:38;50.87;;;3.10;;
8474;SDS011;4274;52.012;8.448;2023-08-24T13:15:03;48.00;;;2.63;;
8474;SDS011;4274;52.012;8.448;2023-08-24T13:17:30;49.10;;;3.23;;
8474;SDS011;4274;52.012;8.448;2023-08-24T13:19:55;50.17;;;3.10;;
8474;SDS011;4274;52.012;8.448;2023-08-24T13:22:21;50.97;;;3.60;;
8474;SDS011;4274;52.012;8.448;2023-08-24T13:24:47;49.97;;;3.40;;
8474;SDS011;4274;52.012;8.448;2023-08-24T13:27:13;49.17;;;3.90;;
8474;SDS011;4274;52.012;8.448;2023-08-24T13:29:38;56.20;;;3.40;;
8474;SDS011;4274;52.012;8.448;2023-08-24T13:32:07;52.13;;;3.50;;
8474;SDS011;4274;52.012;8.448;2023-08-24T13:34:33;48.90;;;3.40;;
8474;SDS011;4274;52.012;8.448;2023-08-24T13:36:58;57.60;;;3.43;;
8474;SDS011;4274;52.012;8.448;2023-08-24T13:39:25;55.07;;;3.50;;
8474;SDS011;4274;52.012;8.448;2023-08-24T13:41:53;57.80;;;3.40;;
8474;SDS011;4274;52.012;8.448;2023-08-24T13:44:19;50.17;;;3.70;;
8474;SDS011;4274;52.012;8.448;2023-08-24T13:46:44;51.50;;;3.40;;
8474;SDS011;4274;52.012;8.448;2023-08-24T13:49:10;49.27;;;3.67;;
8474;SDS011;4274;52.012;8.448;2023-08-24T13:51:36;50.70;;;3.30;;
8474;SDS011;4274;52.012;8.448;2023-08-24T13:54:02;54.40;;;4.00;;
8474;SDS011;4274;52.012;8.448;2023-08-24T13:56:28;52.00;;;4.30;;
8474;SDS011;4274;52.012;8.448;2023-08-24T13:58:54;48.93;;;3.50;;
8474;SDS011;4274;52.012;8.448;2023-08-24T14:01:19;50.43;;;3.60;;
8474;SDS011;4274;52.012;8.448;2023-08-24T14:03:45;49.20;;;3.23;;
8474;SDS011;4274;52.012;8.448;2023-08-24T14:06:11;49.20;;;3.23;;
8474;SDS011;4274;52.012;8.448;2023-08-24T14:08:36;49.40;;;3.90;;
8474;SDS011;4274;52.012;8.448;2023-08-24T14:11:02;52.97;;;3.97;;
8474;SDS011;4274;52.012;8.448;2023-08-24T14:13:28;50.27;;;4.10;;
8474;SDS011;4274;52.012;8.448;2023-08-24T14:15:54;50.57;;;3.33;;
8474;SDS011;4274;52.012;8.448;2023-08-24T14:18:21;54.33;;;3.70;;
8474;SDS011;4274;52.012;8.448;2023-08-24T14:20:47;56.80;;;3.60;;
8474;SDS011;4274;52.012;8.448;2023-08-24T14:23:13;61.78;;;4.30;;
8474;SDS011;4274;52.012;8.448;2023-08-24T14:25:38;49.80;;;3.80;;
8474;SDS011;4274;52.012;8.448;2023-08-24T14:28:04;48.77;;;3.33;;
8474;SDS011;4274;52.012;8.448;2023-08-24T14:30:29;50.90;;;4.20;;
8474;SDS011;4274;52.012;8.448;2023-08-24T14:32:55;56.30;;;3.70;;
8474;SDS011;4274;52.012;8.448;2023-08-24T14:35:20;49.60;;;3.73;;
8474;SDS011;4274;52.012;8.448;2023-08-24T14:37:46;55.80;;;3.70;;
8474;SDS011;4274;52.012;8.448;2023-08-24T14:40:11;50.10;;;3.87;;
8474;SDS011;4274;52.012;8.448;2023-08-24T14:42:37;49.27;;;3.73;;
8474;SDS011;4274;52.012;8.448;2023-08-24T14:45:03;51.23;;;3.90;;
8474;SDS011;4274;52.012;8.448;2023-08-24T14:47:28;51.13;;;4.00;;
8474;SDS011;4274;52.012;8.448;2023-08-24T14:49:54;57.80;;;3.97;;
8474;SDS011;4274;52.012;8.448;2023-08-24T14:52:19;50.57;;;4.03;;
8474;SDS011;4274;52.012;8.448;2023-08-24T14:54:45;53.00;;;4.10;;
8474;SDS011;4274;52.012;8.448;2023-08-24T14:57:11;54.60;;;4.30;;
8474;SDS011;4274;52.012;8.448;2023-08-24T14:59:36;50.07;;;4.00;;
8474;SDS011;4274;52.012;8.448;2023-08-24T15:02:02;50.10;;;4.20;;
8474;SDS011;4274;52.012;8.448;2023-08-24T15:04:27;66.03;;;5.20;;
8474;SDS011;4274;52.012;8.448;2023-08-24T15:06:53;48.83;;;3.80;;
8474;SDS011;4274;52.012;8.448;2023-08-24T15:09:19;52.57;;;4.57;;